Currie, North Carolina
Current Conditions -  °F | °C
As of 8:53 PM on Monday 22 Dec 2014 (Local Time) from KILM Reporting Station
Haze Haze  
Wind Chill: 42°   Ceiling: 200
Heat Index: 45°   Visibility: 3mi
Dew Point: 44°   Wind: 6mph
Humidity: 97%   Direction: 360°N
Pressure: 30.03"   Gusts: NA
Location:  34.46°N, 78.1°W
Report Text: KILM 230153Z 36005KT 3SM BR OVC002 07/07 A3003 RMK AO2 SLP168 T00720067
Loading
Personal Weather Stations






























Interactive Weather Map New forecast layout! Learn more

10-Day Weather Forecast

Advertisements
Track Severe Weather on mobile